Time;durP1;ratioP1;P1;durP2;ratioP2;P2;SDS_P1;SDS_P2;PMS_P1;PMS_P2;Temp;Humidity;BMP_temperature;BMP_pressure;BME280_temperature;BME280_humidity;BME280_pressure;Samples;Min_cycle;Max_cycle;Signal;HPM_P1;HPM_P2
2022/08/02 00:01:19;;;;;;;3.27;3.02;;;;;;;26.51;52.11;100908.28;1701161;82;21082;-51
2022/08/02 00:03:45;;;;;;;3.90;3.12;;;;;;;26.49;51.73;100904.42;1699210;82;21060;-50
2022/08/02 00:06:12;;;;;;;3.80;3.50;;;;;;;26.48;51.67;100911.23;1699883;82;21059;-49
2022/08/02 00:08:40;;;;;;;3.30;3.00;;;;;;;26.47;51.75;100908.19;1700464;84;21086;-51
2022/08/02 00:11:07;;;;;;;3.98;3.42;;;;;;;26.48;51.83;100907.23;1701223;82;21507;-49
2022/08/02 00:13:34;;;;;;;3.33;3.02;;;;;;;26.48;51.87;100913.91;1701526;82;21035;-53
2022/08/02 00:16:00;;;;;;;4.05;3.25;;;;;;;26.46;52.06;100905.18;1693668;82;21535;-51
2022/08/02 00:18:27;;;;;;;4.22;3.58;;;;;;;26.48;52.14;100912.56;1698482;82;21051;-49
2022/08/02 00:20:54;;;;;;;3.30;3.00;;;;;;;26.47;52.15;100906.86;1698766;82;21551;-53
2022/08/02 00:23:20;;;;;;;3.62;3.33;;;;;;;26.47;52.28;100912.19;1701160;82;21079;-52
2022/08/02 00:25:47;;;;;;;3.45;3.15;;;;;;;26.48;52.41;100912.56;1701417;82;21519;-52
2022/08/02 00:28:14;;;;;;;3.90;3.30;;;;;;;26.49;52.36;100916.43;1699548;82;21047;-52
2022/08/02 00:30:40;;;;;;;3.35;3.10;;;;;;;26.52;52.15;100915.33;1699264;82;21607;-52
2022/08/02 00:33:07;;;;;;;4.42;3.50;;;;;;;26.51;52.08;100917.14;1700390;84;21095;-50
2022/08/02 00:35:35;;;;;;;6.80;4.28;;;;;;;26.50;52.00;100918.11;1701341;82;21058;-51
2022/08/02 00:38:03;;;;;;;6.37;4.75;;;;;;;26.48;52.16;100911.23;1699939;82;21050;-50
2022/08/02 00:40:31;;;;;;;9.13;6.15;;;;;;;26.47;52.08;100920.20;1641908;86;21064;-50
2022/08/02 00:43:06;;;;;;;10.63;6.70;;;;;;;26.47;52.16;100914.38;1641179;87;21042;-51
2022/08/02 00:45:37;;;;;;;10.55;6.97;;;;;;;26.52;52.19;100920.66;1668456;84;21014;-51
2022/08/02 00:48:05;;;;;;;13.88;8.23;;;;;;;26.55;52.17;100917.72;1671488;84;21070;-49
2022/08/02 00:50:33;;;;;;;15.18;9.33;;;;;;;26.58;52.07;100920.14;1661960;86;20987;-57
2022/08/02 00:52:59;;;;;;;11.28;8.78;;;;;;;26.60;51.79;100916.85;1659529;86;21075;-51
2022/08/02 00:55:26;;;;;;;14.18;8.50;;;;;;;26.60;51.54;100922.19;1657408;86;21484;-49
2022/08/02 00:57:53;;;;;;;20.45;10.50;;;;;;;26.60;51.32;100927.02;1657513;86;21079;-50
2022/08/02 01:00:20;;;;;;;25.92;13.48;;;;;;;26.61;51.22;100927.87;1657636;86;21086;-51
2022/08/02 01:02:46;;;;;;;23.85;14.60;;;;;;;26.62;51.05;100925.57;1657495;86;21047;-50
2022/08/02 01:05:13;;;;;;;21.42;12.60;;;;;;;26.61;50.98;100921.20;1658537;86;21519;-50
2022/08/02 01:07:40;;;;;;;15.08;10.08;;;;;;;26.58;51.18;100925.48;1660329;86;21055;-51
2022/08/02 01:10:08;;;;;;;13.62;8.10;;;;;;;26.53;51.44;100920.53;1659815;86;21587;-52
2022/08/02 01:12:35;;;;;;;13.18;8.38;;;;;;;26.48;51.59;100923.24;1657851;86;21165;-50
2022/08/02 01:15:08;;;;;;;6.17;5.53;;;;;;;26.43;51.88;100926.77;1658817;86;21067;-49
2022/08/02 01:18:08;;;;;;;8.50;4.85;;;;;;;26.40;52.26;100932.36;1659294;86;21055;-53
2022/08/02 01:21:18;;;;;;;3.35;3.05;;;;;;;26.36;52.32;100929.59;1664382;86;21595;-50
2022/08/02 01:24:23;;;;;;;3.20;3.00;;;;;;;26.31;52.41;100927.81;1651208;86;21556;-53
2022/08/02 01:27:06;;;;;;;3.05;2.85;;;;;;;26.24;52.56;100929.30;1656023;86;21091;-52
2022/08/02 01:29:42;;;;;;;4.78;3.62;;;;;;;26.18;53.28;100931.14;1638597;85;21074;-53
2022/08/02 01:32:15;;;;;;;3.58;3.27;;;;;;;26.17;53.21;100932.14;1586303;90;21036;-52
2022/08/02 01:34:50;;;;;;;2.77;2.47;;;;;;;26.16;52.93;100937.95;1552857;91;21664;-50
2022/08/02 01:37:33;;;;;;;2.60;2.40;;;;;;;26.16;52.29;100939.77;1567910;90;21534;-50
2022/08/02 01:40:07;;;;;;;2.90;2.70;;;;;;;26.15;51.54;100938.09;1634482;87;21030;-52
2022/08/02 01:42:34;;;;;;;3.90;2.42;;;;;;;26.13;51.36;100932.86;1590204;89;21088;-51
2022/08/02 01:45:00;;;;;;;2.90;2.70;;;;;;;26.14;51.03;100935.90;1591806;89;21565;-52
2022/08/02 01:47:30;;;;;;;3.00;2.80;;;;;;;26.14;51.02;100936.38;1594718;89;21107;-53
2022/08/02 01:49:58;;;;;;;2.72;2.52;;;;;;;26.13;51.12;100937.37;1590780;89;21068;-50
2022/08/02 01:52:27;;;;;;;2.67;2.30;;;;;;;26.13;50.95;100941.37;1590931;89;21056;-51
2022/08/02 01:55:06;;;;;;;3.83;2.60;;;;;;;26.13;50.80;100941.37;1591958;89;21119;-51
2022/08/02 01:57:38;;;;;;;3.37;2.58;;;;;;;26.12;50.92;100943.18;1585174;90;21070;-51
2022/08/02 02:00:07;;;;;;;;;;;;;;;26.10;50.70;100942.95;1586875;90;21082;-53
2022/08/02 02:02:35;;;;;;;4.22;3.92;;;;;;;26.07;51.05;100940.52;1585673;90;20108;-51
2022/08/02 02:05:03;;;;;;;4.28;3.98;;;;;;;26.06;52.57;100944.14;1585599;90;21113;-50
2022/08/02 02:07:32;;;;;;;5.37;4.30;;;;;;;26.04;53.29;100940.75;1601890;89;21060;-52
2022/08/02 02:10:00;;;;;;;4.15;3.75;;;;;;;26.01;53.66;100938.36;1561968;89;21079;-55
2022/08/02 02:12:26;;;;;;;4.05;3.75;;;;;;;25.98;53.89;100938.13;1605812;89;21066;-53
2022/08/02 02:14:54;;;;;;;3.47;3.17;;;;;;;25.97;53.97;100939.56;1606808;89;21523;-51
2022/08/02 02:17:21;;;;;;;3.30;3.10;;;;;;;25.95;53.74;100932.17;1605113;89;21102;-51
2022/08/02 02:19:48;;;;;;;3.05;2.85;;;;;;;25.94;52.93;100937.16;1604987;89;21038;-51
2022/08/02 02:22:15;;;;;;;3.42;3.12;;;;;;;25.92;52.90;100935.11;1604058;89;21071;-51
2022/08/02 02:24:41;;;;;;;4.25;3.55;;;;;;;25.93;53.03;100940.78;1604284;89;21099;-49
2022/08/02 02:27:08;;;;;;;4.20;3.80;;;;;;;25.93;53.58;100935.45;1605073;89;21528;-51
2022/08/02 02:29:35;;;;;;;3.98;3.65;;;;;;;25.96;53.76;100935.22;1643362;85;21061;-50
2022/08/02 02:32:02;;;;;;;3.47;3.20;;;;;;;25.97;53.75;100946.22;1651584;85;21064;-50
2022/08/02 02:34:33;;;;;;;3.60;3.30;;;;;;;25.97;53.64;100939.56;1624290;85;21518;-53
2022/08/02 02:37:03;;;;;;;3.02;2.83;;;;;;;25.93;53.51;100942.12;1671615;85;21049;-52
2022/08/02 02:39:31;;;;;;;3.23;3.00;;;;;;;25.90;53.31;100935.72;1697972;82;21020;-52
2022/08/02 02:42:02;;;;;;;3.77;3.47;;;;;;;25.88;53.37;100935.00;1714981;82;21520;-50
2022/08/02 02:44:30;;;;;;;3.70;3.40;;;;;;;25.84;53.46;100935.23;1710692;83;21008;-51
2022/08/02 02:46:57;;;;;;;3.62;3.33;;;;;;;25.84;53.73;100939.23;1709905;83;21091;-54
2022/08/02 02:49:23;;;;;;;5.50;3.40;;;;;;;25.83;54.00;100938.05;1740785;81;21046;-51
2022/08/02 02:51:51;;;;;;;3.75;3.45;;;;;;;25.83;54.07;100939.38;1736048;80;21027;-51
2022/08/02 02:54:18;;;;;;;3.67;3.37;;;;;;;25.82;53.90;100942.52;1714166;83;21080;-49
2022/08/02 02:56:44;;;;;;;3.40;3.10;;;;;;;25.82;53.86;100945.19;1712672;83;21470;-52
2022/08/02 02:59:13;;;;;;;3.75;3.45;;;;;;;25.83;54.08;100944.23;1711101;83;21073;-56
2022/08/02 03:01:39;;;;;;;3.60;3.30;;;;;;;25.82;54.03;100947.85;1702453;83;21034;-52
2022/08/02 03:04:08;;;;;;;3.42;3.22;;;;;;;25.81;53.91;100946.17;1712625;83;21044;-49
2022/08/02 03:06:36;;;;;;;3.20;2.90;;;;;;;25.79;54.01;100949.45;1714054;83;21049;-51
2022/08/02 03:09:04;;;;;;;3.52;3.22;;;;;;;25.78;54.06;100944.25;1714229;83;21033;-53
2022/08/02 03:11:31;;;;;;;3.50;3.20;;;;;;;25.77;54.07;100950.06;1711986;83;21084;-50
2022/08/02 03:13:59;;;;;;;4.30;3.65;;;;;;;25.76;54.02;100949.69;1712176;83;21033;-49
2022/08/02 03:16:29;;;;;;;3.65;3.35;;;;;;;25.75;54.37;100958.67;1711779;83;21021;-50
2022/08/02 03:18:57;;;;;;;3.17;2.87;;;;;;;25.74;54.56;100957.44;1711211;83;21526;-52
2022/08/02 03:21:23;;;;;;;3.45;3.15;;;;;;;25.75;54.24;100966.67;1706652;83;21025;-52
2022/08/02 03:23:50;;;;;;;4.20;3.45;;;;;;;25.75;54.24;100966.67;1712537;83;21022;-53
2022/08/02 03:26:17;;;;;;;4.42;4.03;;;;;;;25.76;54.21;100959.02;1713935;83;21470;-53
2022/08/02 03:28:43;;;;;;;3.60;3.35;;;;;;;25.75;54.27;100960.00;1710047;83;21561;-53
2022/08/02 03:31:11;;;;;;;3.65;3.35;;;;;;;25.72;54.18;100965.57;1714318;83;21100;-53
2022/08/02 03:33:38;;;;;;;3.80;3.50;;;;;;;25.71;54.45;100969.22;1706109;83;21069;-52
2022/08/02 03:36:13;;;;;;;5.90;3.98;;;;;;;25.67;54.66;100955.78;1717560;83;21020;-50
2022/08/02 03:38:39;;;;;;;4.85;4.45;;;;;;;25.67;54.72;100953.13;1687807;84;21078;-51
2022/08/02 03:41:07;;;;;;;4.55;4.22;;;;;;;25.65;54.78;100948.41;1668395;85;21047;-49
2022/08/02 03:43:35;;;;;;;6.97;4.95;;;;;;;25.64;55.19;100943.17;1692761;84;21055;-50
2022/08/02 03:46:02;;;;;;;5.22;4.83;;;;;;;25.68;55.29;100948.14;1663858;84;21122;-51
2022/08/02 03:48:28;;;;;;;5.00;4.60;;;;;;;25.68;55.54;100949.47;1695838;84;21090;-51
2022/08/02 03:50:55;;;;;;;5.60;4.80;;;;;;;25.71;55.35;100951.90;1653787;86;21044;-50
2022/08/02 03:53:22;;;;;;;5.42;4.92;;;;;;;25.74;55.51;100954.77;1726455;81;21094;-51
2022/08/02 03:55:49;;;;;;;5.35;4.90;;;;;;;25.81;55.64;100956.84;1725204;81;21476;-51
2022/08/02 03:58:20;;;;;;;5.40;4.95;;;;;;;25.97;55.26;100955.55;1724497;81;21007;-55
2022/08/02 04:00:47;;;;;;;5.37;4.85;;;;;;;26.09;54.85;100949.27;1722727;81;21062;-50
2022/08/02 04:03:14;;;;;;;6.00;5.50;;;;;;;26.14;54.63;100955.05;1721661;82;21027;-51
2022/08/02 04:05:41;;;;;;;6.92;5.15;;;;;;;26.12;54.64;100953.84;1728293;81;21101;-53
2022/08/02 04:08:08;;;;;;;6.55;4.90;;;;;;;26.12;54.88;100958.33;1725241;81;21007;-52
2022/08/02 04:13:23;;;;;;;6.30;5.80;;;;;;;26.09;55.21;100952.76;1724326;81;21555;-50
2022/08/02 04:15:52;;;;;;;5.28;4.87;;;;;;;26.08;55.39;100956.89;1717906;81;21046;-51
2022/08/02 04:18:21;;;;;;;5.70;5.10;;;;;;;26.06;55.50;100956.14;1723399;81;21038;-52
2022/08/02 04:20:49;;;;;;;5.60;4.85;;;;;;;26.05;55.70;100954.47;1724123;81;21058;-51
2022/08/02 04:23:15;;;;;;;6.10;5.55;;;;;;;26.03;55.81;100952.41;1722829;82;21574;-48
2022/08/02 04:25:43;;;;;;;6.45;5.80;;;;;;;26.00;55.92;100952.66;1719275;81;21074;-51
2022/08/02 04:28:10;;;;;;;6.45;5.83;;;;;;;26.01;56.33;100954.36;1723288;81;21074;-53
2022/08/02 04:30:37;;;;;;;6.50;5.87;;;;;;;25.99;56.41;100954.46;1723592;81;21050;-49
2022/08/02 04:33:04;;;;;;;5.67;5.20;;;;;;;25.99;56.39;100954.46;1725506;81;21002;-56
2022/08/02 04:35:31;;;;;;;6.20;5.58;;;;;;;25.99;56.24;100950.97;1735232;80;21006;-50
2022/08/02 04:37:57;;;;;;;6.05;5.53;;;;;;;25.96;56.34;100953.88;1741645;80;21827;-53
2022/08/02 04:40:24;;;;;;;6.47;5.97;;;;;;;25.95;56.34;100952.17;1738580;80;21041;-55
2022/08/02 04:42:52;;;;;;;6.87;6.22;;;;;;;25.95;56.61;100965.50;1737951;80;20994;-52
2022/08/02 04:45:18;;;;;;;6.50;5.85;;;;;;;25.94;56.18;100962.49;1742519;82;21525;-51
2022/08/02 04:47:45;;;;;;;6.60;6.00;;;;;;;25.90;56.07;100958.38;1741768;80;21037;-51
2022/08/02 04:50:11;;;;;;;6.78;6.28;;;;;;;25.88;56.00;100960.33;1723768;81;21089;-50
2022/08/02 04:52:38;;;;;;;6.60;5.92;;;;;;;25.89;55.80;100967.34;1733733;81;21519;-49
2022/08/02 04:55:06;;;;;;;6.72;6.12;;;;;;;25.88;55.69;100961.66;1738816;82;21078;-55
2022/08/02 05:00:18;;;;;;;6.30;5.78;;;;;;;25.90;55.06;100966.38;1732354;82;21606;-51
2022/08/02 05:02:45;;;;;;;9.65;5.92;;;;;;;25.91;54.80;100966.73;1734512;81;21023;-49
2022/08/02 05:05:12;;;;;;;5.83;5.30;;;;;;;25.91;54.77;100966.73;1734079;81;21496;-50
2022/08/02 05:07:39;;;;;;;5.58;5.08;;;;;;;25.93;54.59;100964.78;1733250;81;21066;-51
2022/08/02 05:10:07;;;;;;;5.58;5.17;;;;;;;25.96;54.38;100967.21;1733393;81;21031;-49
2022/08/02 05:12:34;;;;;;;8.83;5.47;;;;;;;25.99;54.35;100964.30;1733541;81;21070;-50
2022/08/02 05:15:00;;;;;;;5.92;5.42;;;;;;;26.05;54.11;100969.13;1734739;81;20999;-53
2022/08/02 05:17:27;;;;;;;5.95;5.28;;;;;;;26.10;53.78;100969.61;1732192;82;20991;-50
2022/08/02 05:19:54;;;;;;;5.15;4.75;;;;;;;26.13;53.56;100964.04;1689856;84;21510;-51
2022/08/02 05:22:20;;;;;;;7.20;5.33;;;;;;;26.16;53.29;100966.44;1699710;84;21093;-54
2022/08/02 05:24:47;;;;;;;12.28;5.15;;;;;;;26.19;53.10;100970.20;1701253;84;21515;-50
2022/08/02 05:27:14;;;;;;;5.50;5.00;;;;;;;26.22;53.26;100976.59;1736200;81;21089;-55
2022/08/02 05:29:40;;;;;;;6.08;4.95;;;;;;;26.26;53.32;100977.55;1740093;81;21066;-53
2022/08/02 05:32:07;;;;;;;5.85;5.35;;;;;;;26.32;53.20;100983.70;1735132;81;21054;-52
2022/08/02 05:34:34;;;;;;;5.35;4.95;;;;;;;26.37;53.14;100982.84;1737194;82;21057;-49
2022/08/02 05:37:01;;;;;;;7.20;4.75;;;;;;;26.44;52.91;100973.84;1736671;81;21022;-51
2022/08/02 05:39:28;;;;;;;4.45;4.12;;;;;;;26.57;52.84;100975.81;1735489;81;21007;-50
2022/08/02 05:41:55;;;;;;;4.78;4.37;;;;;;;26.77;52.16;100976.33;1733370;81;21019;-52
2022/08/02 05:44:22;;;;;;;4.37;4.00;;;;;;;26.95;51.81;100981.93;1722739;81;21031;-49
2022/08/02 05:46:49;;;;;;;4.65;4.25;;;;;;;27.11;51.29;100980.47;1700997;84;21038;-50
2022/08/02 05:49:15;;;;;;;3.87;3.55;;;;;;;27.28;50.88;100979.85;1691749;84;21056;-49
2022/08/02 05:51:46;;;;;;;4.12;3.83;;;;;;;27.45;50.23;100982.89;1700460;84;21486;-50
2022/08/02 05:54:41;;;;;;;;;;;;;;;27.61;49.57;100983.22;1742869;81;21039;-51
2022/08/02 05:57:18;;;;;;;4.20;3.83;;;;;;;27.74;48.49;100977.96;1733880;81;20133;-51
2022/08/02 06:00:11;;;;;;;4.33;3.92;;;;;;;27.87;48.32;100980.38;1735513;81;21042;-49
2022/08/02 06:03:15;;;;;;;4.95;4.47;;;;;;;28.00;48.11;100995.72;1698497;84;20983;-53
2022/08/02 06:06:13;;;;;;;4.33;3.95;;;;;;;28.16;48.25;100993.34;1738533;81;21528;-51
2022/08/02 06:08:46;;;;;;;4.70;4.40;;;;;;;28.35;47.89;100993.35;1697067;84;21490;-54
2022/08/02 06:11:16;;;;;;;5.00;4.55;;;;;;;28.55;47.42;100999.04;1694735;84;21077;-52
2022/08/02 06:13:43;;;;;;;6.60;4.85;;;;;;;28.67;46.89;100995.25;1694912;83;21059;-51
2022/08/02 06:16:09;;;;;;;4.95;4.55;;;;;;;28.76;46.86;100993.06;1688886;83;21035;-51
2022/08/02 06:18:36;;;;;;;4.58;4.17;;;;;;;28.85;46.86;100993.52;1692019;83;21070;-54
2022/08/02 06:21:04;;;;;;;5.35;4.75;;;;;;;28.88;46.76;100990.56;1691655;83;21128;-51
2022/08/02 06:23:31;;;;;;;6.42;4.70;;;;;;;28.88;47.18;100994.58;1692911;84;21078;-51
2022/08/02 06:25:59;;;;;;;5.87;5.30;;;;;;;28.86;47.51;100999.23;1694714;83;21030;-51
2022/08/02 06:28:25;;;;;;;5.65;5.22;;;;;;;28.80;48.08;100995.80;1694773;83;21103;-52
2022/08/02 06:30:52;;;;;;;5.67;5.17;;;;;;;28.73;48.45;100996.02;1692884;84;21106;-52
2022/08/02 06:33:19;;;;;;;6.00;5.50;;;;;;;28.66;48.77;101000.27;1693061;84;21110;-49
2022/08/02 06:36:20;;;;;;;6.87;5.33;;;;;;;28.59;48.78;101004.49;1694088;84;21010;-52
2022/08/02 06:39:07;;;;;;;5.50;5.00;;;;;;;28.53;48.88;101004.17;1698232;84;21636;-51
2022/08/02 06:41:41;;;;;;;5.72;5.22;;;;;;;28.52;48.88;101002.50;1670866;85;21029;-51
2022/08/02 06:44:10;;;;;;;5.12;4.62;;;;;;;28.54;48.70;101009.38;1666013;85;21089;-50
2022/08/02 06:46:37;;;;;;;5.50;5.03;;;;;;;28.56;48.54;101004.80;1673244;85;21002;-49
2022/08/02 06:49:03;;;;;;;5.75;5.22;;;;;;;28.55;48.76;101007.07;1670389;84;21030;-51
2022/08/02 06:51:30;;;;;;;6.28;5.72;;;;;;;28.55;48.83;101004.39;1638152;85;21074;-57
2022/08/02 06:53:57;;;;;;;5.87;5.28;;;;;;;28.57;48.95;101003.79;1669199;85;21105;-55
2022/08/02 06:56:23;;;;;;;6.25;5.75;;;;;;;28.59;48.88;101004.49;1660449;85;21034;-53
2022/08/02 06:58:50;;;;;;;6.17;5.55;;;;;;;28.57;48.77;101003.79;1665357;85;21049;-52
2022/08/02 07:01:19;;;;;;;10.78;6.30;;;;;;;28.56;48.81;101007.47;1657042;85;21550;-50
2022/08/02 07:03:45;;;;;;;7.55;6.80;;;;;;;28.54;49.25;101006.70;1674715;85;21010;-50
2022/08/02 07:06:12;;;;;;;6.78;5.58;;;;;;;28.51;49.55;101007.00;1668288;85;21495;-52
2022/08/02 07:08:39;;;;;;;34.63;8.70;;;;;;;28.50;49.86;101002.63;1687885;84;21050;-52
2022/08/02 07:11:07;;;;;;;8.35;7.15;;;;;;;28.50;49.95;101009.31;1696766;84;21778;-55
2022/08/02 07:13:34;;;;;;;7.92;7.12;;;;;;;28.50;50.12;101010.66;1689604;84;21011;-55
2022/08/02 07:16:03;;;;;;;7.42;6.58;;;;;;;28.54;50.44;101007.22;1697145;84;21503;-52
2022/08/02 07:18:30;;;;;;;6.35;5.85;;;;;;;28.63;50.49;101011.25;1695482;84;22046;-54
2022/08/02 07:20:57;;;;;;;6.83;6.17;;;;;;;28.67;50.11;101012.66;1698524;84;21051;-49
2022/08/02 07:23:23;;;;;;;7.25;6.55;;;;;;;28.71;49.99;101014.05;1696206;84;21554;-51
2022/08/02 07:25:50;;;;;;;7.97;6.83;;;;;;;28.74;49.59;101013.78;1693721;84;21051;-53
2022/08/02 07:28:17;;;;;;;6.87;6.33;;;;;;;28.74;49.79;101013.78;1697932;84;21467;-53
2022/08/02 07:30:44;;;;;;;7.60;6.90;;;;;;;28.77;49.77;101009.98;1694891;84;21030;-51
2022/08/02 07:33:10;;;;;;;7.17;6.58;;;;;;;28.78;49.53;101017.87;1694940;84;21066;-51
2022/08/02 07:35:37;;;;;;;7.75;7.15;;;;;;;28.79;49.75;101016.86;1694497;84;21577;-51
2022/08/02 07:38:04;;;;;;;8.40;7.60;;;;;;;28.79;49.54;101022.22;1737554;80;21055;-52
2022/08/02 07:40:31;;;;;;;7.62;7.10;;;;;;;28.78;50.00;101030.41;1753584;80;21070;-53
2022/08/02 07:43:16;;;;;;;8.43;7.72;;;;;;;28.78;50.13;101030.41;1745531;81;21153;-49
2022/08/02 07:45:43;;;;;;;7.45;6.85;;;;;;;28.76;50.17;101033.23;1709246;83;21042;-52
2022/08/02 07:48:09;;;;;;;8.88;7.97;;;;;;;28.76;50.51;101033.23;1706237;83;20990;-53
2022/08/02 07:50:37;;;;;;;7.42;6.65;;;;;;;28.78;50.61;101033.08;1762625;80;21019;-53
2022/08/02 07:53:04;;;;;;;6.78;6.22;;;;;;;28.80;50.26;101033.30;1758209;80;21062;-50
2022/08/02 07:55:30;;;;;;;6.50;5.85;;;;;;;28.83;50.23;101034.33;1756673;80;21495;-52
2022/08/02 07:57:58;;;;;;;7.40;6.65;;;;;;;28.80;50.00;101029.28;1748054;80;21053;-55
2022/08/02 08:00:24;;;;;;;7.33;6.72;;;;;;;28.80;50.44;101031.95;1749533;80;20994;-50
2022/08/02 08:02:51;;;;;;;10.00;7.25;;;;;;;28.83;50.58;101031.66;1749792;80;21503;-50
2022/08/02 08:05:18;;;;;;;7.58;6.97;;;;;;;28.87;50.69;101027.70;1709979;83;21077;-51
2022/08/02 08:07:45;;;;;;;9.18;7.30;;;;;;;28.94;50.70;101036.86;1716231;83;21796;-54
2022/08/02 08:10:12;;;;;;;7.58;6.97;;;;;;;29.02;50.34;101029.95;1719501;83;20986;-51
2022/08/02 08:12:39;;;;;;;8.78;7.10;;;;;;;29.08;50.13;101025.35;1719519;83;21065;-50
2022/08/02 08:15:07;;;;;;;8.30;7.20;;;;;;;29.15;50.02;101025.13;1717998;83;21850;-55
2022/08/02 08:17:36;;;;;;;8.60;7.80;;;;;;;29.20;49.79;101025.55;1715664;83;21486;-53
2022/08/02 08:20:04;;;;;;;7.60;6.85;;;;;;;29.24;49.61;101021.10;1717745;83;20996;-52
2022/08/02 08:22:31;;;;;;;6.83;6.33;;;;;;;29.27;49.35;101017.26;1715740;83;21517;-52
2022/08/02 08:24:58;;;;;;;15.95;7.20;;;;;;;29.29;48.68;101014.79;1717559;83;21043;-51
2022/08/02 08:27:25;;;;;;;7.60;6.90;;;;;;;29.31;48.86;101017.31;1706659;83;21039;-49
2022/08/02 08:29:52;;;;;;;7.37;6.78;;;;;;;29.34;48.72;101028.61;1714958;83;21066;-53
2022/08/02 08:32:19;;;;;;;7.20;6.53;;;;;;;29.38;48.99;101026.47;1710583;83;21563;-52
2022/08/02 08:34:46;;;;;;;7.25;6.00;;;;;;;29.38;48.59;101026.47;1706131;83;21037;-52
2022/08/02 08:37:14;;;;;;;6.62;6.03;;;;;;;29.35;48.66;101026.75;1704691;83;21018;-52
2022/08/02 08:39:42;;;;;;;6.85;6.25;;;;;;;29.32;48.79;101026.57;1707383;83;21546;-53
2022/08/02 08:42:09;;;;;;;7.53;6.30;;;;;;;29.32;48.49;101024.38;1706799;83;21094;-51
2022/08/02 08:44:35;;;;;;;6.65;5.83;;;;;;;29.30;48.86;101026.36;1701008;83;21054;-52
2022/08/02 08:47:03;;;;;;;8.73;6.05;;;;;;;29.31;48.67;101019.51;1710693;83;21466;-51
2022/08/02 08:49:32;;;;;;;6.05;5.45;;;;;;;29.31;48.50;101018.16;1703797;83;21494;-52
2022/08/02 08:52:03;;;;;;;8.85;5.97;;;;;;;29.32;48.52;101019.02;1699385;83;21011;-50
2022/08/02 08:54:32;;;;;;;5.97;5.40;;;;;;;29.33;48.49;101019.34;1690637;83;21094;-50
2022/08/02 08:56:59;;;;;;;6.37;5.78;;;;;;;29.35;48.59;101020.05;1699227;83;21523;-51
2022/08/02 08:59:26;;;;;;;6.12;5.62;;;;;;;29.39;48.19;101014.73;1691034;83;21028;-50
2022/08/02 09:01:54;;;;;;;7.85;5.70;;;;;;;29.41;48.11;101016.77;1689470;84;21051;-51
2022/08/02 09:04:21;;;;;;;7.62;6.30;;;;;;;29.46;48.24;101011.83;1711010;83;21025;-52
2022/08/02 09:06:48;;;;;;;6.47;5.87;;;;;;;29.54;48.33;101011.92;1690886;83;21000;-51
2022/08/02 09:09:17;;;;;;;5.83;5.20;;;;;;;29.61;48.71;101013.03;1687334;83;21079;-52
2022/08/02 09:11:44;;;;;;;6.45;5.92;;;;;;;29.68;47.86;101011.42;1694019;83;21048;-49
2022/08/02 09:14:13;;;;;;;6.65;5.97;;;;;;;29.72;48.00;101006.11;1697992;84;21059;-52
2022/08/02 09:16:42;;;;;;;7.08;6.47;;;;;;;29.78;47.84;101002.86;1688875;84;21070;-53
2022/08/02 09:19:24;;;;;;;7.05;6.35;;;;;;;29.83;47.99;101007.28;1696692;83;21479;-53
2022/08/02 09:22:03;;;;;;;7.17;6.50;;;;;;;29.85;47.63;101003.95;1696992;83;20951;-49
2022/08/02 09:24:44;;;;;;;7.87;7.10;;;;;;;29.88;48.06;101006.35;1709234;83;21059;-51
2022/08/02 09:27:16;;;;;;;7.80;7.10;;;;;;;29.93;48.36;101012.09;1690213;83;21075;-52
2022/08/02 09:29:51;;;;;;;9.68;7.47;;;;;;;29.98;48.27;101007.13;1693131;83;21011;-51
2022/08/02 09:32:18;;;;;;;8.10;6.92;;;;;;;30.02;48.26;101008.52;1689643;83;21051;-49
2022/08/02 09:34:52;;;;;;;8.10;7.40;;;;;;;30.08;48.41;101014.61;1696573;83;21079;-49
2022/08/02 09:37:28;;;;;;;7.80;7.17;;;;;;;30.14;48.09;101007.29;1696294;83;21000;-52
2022/08/02 09:39:59;;;;;;;8.70;7.53;;;;;;;30.21;47.81;101004.84;1690562;83;21027;-52
2022/08/02 09:42:26;;;;;;;8.90;8.20;;;;;;;30.25;47.85;101004.36;1695689;83;21023;-50
2022/08/02 09:44:55;;;;;;;9.25;8.00;;;;;;;30.33;47.84;101005.84;1692290;83;21063;-52
2022/08/02 09:47:23;;;;;;;7.97;7.17;;;;;;;30.37;47.71;101005.02;1697842;83;21015;-50
2022/08/02 09:49:52;;;;;;;15.05;8.08;;;;;;;30.39;47.51;101003.88;1691828;83;20993;-53
2022/08/02 09:52:29;;;;;;;8.05;7.40;;;;;;;30.44;47.05;101004.73;1694817;84;21527;-54
2022/08/02 09:55:04;;;;;;;8.03;7.42;;;;;;;30.44;46.82;101000.21;1612487;87;21106;-52
2022/08/02 09:57:37;;;;;;;8.28;7.47;;;;;;;30.46;46.90;101007.61;1609093;88;21093;-52
2022/08/02 10:00:09;;;;;;;17.60;8.23;;;;;;;30.45;46.98;101011.31;1650642;86;21068;-51
2022/08/02 10:02:38;;;;;;;13.05;7.55;;;;;;;30.42;46.85;101006.23;1649122;86;21138;-52
2022/08/02 10:05:07;;;;;;;8.55;7.75;;;;;;;30.40;47.22;101000.17;1649046;86;21110;-51
2022/08/02 10:07:35;;;;;;;7.83;7.03;;;;;;;30.38;47.25;101004.00;1649956;86;21585;-52
2022/08/02 10:10:03;;;;;;;8.13;6.95;;;;;;;30.37;47.20;101012.59;1650055;86;21530;-50
2022/08/02 10:12:30;;;;;;;7.70;7.10;;;;;;;30.37;46.41;101008.56;1630102;86;21061;-49
2022/08/02 10:14:57;;;;;;;8.38;7.50;;;;;;;30.38;46.59;101011.57;1649053;86;21074;-52
2022/08/02 10:17:24;;;;;;;9.88;6.70;;;;;;;30.40;46.99;101010.06;1642303;86;21042;-52
2022/08/02 10:19:51;;;;;;;8.33;6.62;;;;;;;30.42;46.75;101003.55;1653166;86;21026;-48
2022/08/02 10:22:18;;;;;;;6.95;6.30;;;;;;;30.46;46.53;100998.21;1654700;86;21037;-50
2022/08/02 10:24:45;;;;;;;6.30;5.80;;;;;;;30.46;46.53;101003.58;1651866;86;21018;-51
2022/08/02 10:27:18;;;;;;;6.60;6.10;;;;;;;30.49;45.80;101006.47;1647713;86;21146;-52
2022/08/02 10:29:48;;;;;;;5.72;5.22;;;;;;;30.53;45.31;101011.38;1595899;89;21067;-52
2022/08/02 10:32:22;;;;;;;6.33;5.62;;;;;;;30.59;45.33;101003.19;1632899;85;21034;-51
2022/08/02 10:35:07;;;;;;;5.78;5.00;;;;;;;30.65;44.90;101005.73;1661085;85;21059;-51
2022/08/02 10:37:36;;;;;;;7.17;4.95;;;;;;;30.69;44.39;100999.05;1660147;85;21075;-51
2022/08/02 10:40:05;;;;;;;5.03;4.60;;;;;;;30.75;43.60;101001.97;1665262;85;21118;-51
2022/08/02 10:42:45;;;;;;;5.60;5.20;;;;;;;30.80;43.65;101001.50;1663392;85;21006;-51
2022/08/02 10:45:15;;;;;;;5.47;4.97;;;;;;;30.87;43.37;101003.42;1650292;87;21150;-52
2022/08/02 10:48:02;;;;;;;5.67;5.17;;;;;;;30.94;42.81;101002.30;1648853;85;21042;-52
2022/08/02 10:50:51;;;;;;;5.00;4.50;;;;;;;31.00;42.77;101003.86;1666145;84;21624;-52
2022/08/02 10:53:32;;;;;;;4.97;4.28;;;;;;;31.05;42.34;101006.08;1685150;84;22064;-51
2022/08/02 10:56:04;;;;;;;4.65;4.25;;;;;;;31.07;41.96;101006.76;1673829;84;21043;-50
2022/08/02 10:58:32;;;;;;;6.17;4.70;;;;;;;31.07;41.69;101002.23;1671369;84;21579;-52
2022/08/02 11:01:07;;;;;;;4.60;4.30;;;;;;;31.10;41.61;101002.39;1665285;84;21067;-54
2022/08/02 11:03:38;;;;;;;5.62;4.45;;;;;;;31.12;41.95;101000.38;1614674;88;21069;-52
2022/08/02 11:06:13;;;;;;;7.35;4.33;;;;;;;31.18;41.81;100998.44;1617267;88;21078;-54
2022/08/02 11:08:40;;;;;;;4.17;3.87;;;;;;;31.24;41.45;100996.45;1616531;88;21084;-53
2022/08/02 11:11:16;;;;;;;5.75;5.35;;;;;;;31.31;41.66;100993.44;1618681;88;21071;-52
2022/08/02 11:14:02;;;;;;;5.83;4.97;;;;;;;31.35;41.56;100994.80;1616311;88;21031;-53
2022/08/02 11:19:28;;;;;;;5.80;5.20;;;;;;;31.44;41.63;100996.57;1492745;96;21739;-50
2022/08/02 11:22:08;;;;;;;5.70;5.10;;;;;;;31.48;42.07;100987.66;1502006;94;21068;-53
2022/08/02 11:24:37;;;;;;;7.53;4.70;;;;;;;31.53;41.96;100987.51;1479638;96;21126;-51
2022/08/02 11:27:07;;;;;;;5.65;5.10;;;;;;;31.59;41.70;100992.27;1498807;95;21187;-52
2022/08/02 11:29:38;;;;;;;5.22;4.83;;;;;;;31.64;41.67;100989.91;1489051;96;21191;-49
2022/08/02 11:32:21;;;;;;;5.30;4.80;;;;;;;31.69;41.33;100986.25;1478911;96;21183;-49
2022/08/02 11:34:52;;;;;;;7.03;5.12;;;;;;;31.71;41.47;100986.92;1481003;96;21101;-52
2022/08/02 11:40:08;;;;;;;6.40;5.90;;;;;;;31.73;41.28;100991.64;1422184;99;21106;-51
2022/08/02 11:42:38;;;;;;;5.85;5.35;;;;;;;31.74;41.47;100981.20;1407648;100;21131;-53
2022/08/02 11:45:08;;;;;;;6.53;5.40;;;;;;;31.73;41.25;100986.75;1407179;102;21681;-49
2022/08/02 11:47:51;;;;;;;5.37;4.87;;;;;;;31.74;40.86;100987.92;1410457;100;21146;-53